createdAt,value
2023-01-30T00:01:18.110Z,5.599
2023-01-30T00:02:17.872Z,5.300
2023-01-30T00:03:18.042Z,5.199
2023-01-30T00:04:18.102Z,5.400
2023-01-30T00:05:18.332Z,5.599
2023-01-30T00:06:17.788Z,5.099
2023-01-30T00:08:17.585Z,5.400
2023-01-30T00:09:17.968Z,5.599
2023-01-30T00:10:18.435Z,5.5
2023-01-30T00:12:18.130Z,5.300
2023-01-30T00:14:17.771Z,5.5
2023-01-30T00:15:17.988Z,5.699
2023-01-30T00:16:17.931Z,5.800
2023-01-30T00:17:17.843Z,5.5
2023-01-30T00:18:17.455Z,5.699
2023-01-30T00:19:17.652Z,5.300
2023-01-30T00:20:18.202Z,5.599
2023-01-30T00:21:17.280Z,5.300
2023-01-30T00:22:18.250Z,5.599
2023-01-30T00:23:17.850Z,5.900
2023-01-30T00:26:17.618Z,5.699
2023-01-30T00:27:18.081Z,5.800
2023-01-30T00:30:17.795Z,6
2023-01-30T00:31:17.587Z,6.099
2023-01-30T00:34:17.784Z,6.5
2023-01-30T00:35:17.722Z,6.599
2023-01-30T00:36:18.060Z,6.5
2023-01-30T00:37:18.024Z,6.199
2023-01-30T00:38:17.883Z,6.5
2023-01-30T00:39:17.696Z,6
2023-01-30T00:40:17.875Z,6.699
2023-01-30T00:41:17.966Z,6.800
2023-01-30T00:42:17.847Z,7
2023-01-30T00:43:17.977Z,6.5
2023-01-30T00:44:17.953Z,6.599
2023-01-30T00:45:18.198Z,6.900
2023-01-30T00:46:17.827Z,6.5
2023-01-30T00:47:17.587Z,6.900
2023-01-30T00:48:17.595Z,6.699
2023-01-30T00:50:17.942Z,6.800
2023-01-30T00:51:17.802Z,7
2023-01-30T00:52:17.507Z,7.099
2023-01-30T00:53:17.640Z,6.5
2023-01-30T00:54:17.820Z,7
2023-01-30T00:55:17.910Z,7.199
2023-01-30T00:56:17.867Z,7.099
2023-01-30T00:57:17.412Z,6.900
2023-01-30T00:58:18.306Z,7.199
2023-01-30T00:59:17.788Z,6.699
2023-01-30T01:00:18.768Z,7.5
2023-01-30T01:01:19.846Z,6.599
2023-01-30T01:02:23.130Z,7.099
2023-01-30T01:03:17.673Z,6.300
2023-01-30T01:04:17.622Z,6.5
2023-01-30T01:05:18.086Z,7.300
2023-01-30T01:06:18.186Z,6.599
2023-01-30T01:07:17.715Z,6.400
2023-01-30T01:09:17.557Z,6.800
2023-01-30T01:10:17.522Z,6.199
2023-01-30T01:11:17.500Z,6.599
2023-01-30T01:12:17.647Z,6.300
2023-01-30T01:13:18.033Z,6.800
2023-01-30T01:14:17.940Z,6.199
2023-01-30T01:16:17.786Z,6
2023-01-30T01:17:17.959Z,5.699
2023-01-30T01:18:17.983Z,5.800
2023-01-30T01:19:18.003Z,5.599
2023-01-30T01:20:18.216Z,6.099
2023-01-30T01:22:18.034Z,5.900
2023-01-30T01:23:17.992Z,6.099
2023-01-30T01:24:17.797Z,6.300
2023-01-30T01:25:18.317Z,5.900
2023-01-30T01:26:17.632Z,5.599
2023-01-30T01:27:17.688Z,5.5
2023-01-30T01:28:17.670Z,5.599
2023-01-30T01:29:17.860Z,5.300
2023-01-30T01:30:18.106Z,5
2023-01-30T01:31:18.257Z,5.300
2023-01-30T01:32:18.240Z,5.5
2023-01-30T01:33:17.960Z,5.199
2023-01-30T01:34:17.832Z,5.699
2023-01-30T01:35:18.352Z,5.5
2023-01-30T01:36:42.331Z,5.300
2023-01-30T01:37:18.175Z,5.199
2023-01-30T01:38:17.804Z,5.599
2023-01-30T01:39:17.488Z,5.400
2023-01-30T01:40:18.134Z,5.300
2023-01-30T01:41:17.897Z,5.599
2023-01-30T01:42:17.782Z,4.900
2023-01-30T01:43:17.756Z,5.099
2023-01-30T01:44:17.639Z,5.300
2023-01-30T01:45:18.068Z,4.900
2023-01-30T01:46:17.830Z,5.400
2023-01-30T01:47:17.747Z,5.300
2023-01-30T01:48:17.656Z,5.199
2023-01-30T01:50:17.447Z,5.5
2023-01-30T01:51:17.962Z,4.900
2023-01-30T01:52:17.510Z,5
2023-01-30T01:53:17.292Z,4.800
2023-01-30T01:54:17.363Z,4.900
2023-01-30T01:55:18.350Z,5.400
2023-01-30T01:56:17.510Z,5.599
2023-01-30T01:57:17.405Z,5.099
2023-01-30T01:58:17.685Z,5.300
2023-01-30T01:59:17.302Z,5.400
2023-01-30T02:00:18.604Z,5
2023-01-30T02:01:17.554Z,5.300
2023-01-30T02:02:18.020Z,5.400
2023-01-30T02:03:18.453Z,5.199
2023-01-30T02:04:17.905Z,4.800
2023-01-30T02:05:18.719Z,4.900
2023-01-30T02:06:18.143Z,4.699
2023-01-30T02:07:18.035Z,4.599
2023-01-30T02:09:18.385Z,4.800
2023-01-30T02:10:18.529Z,4.599
2023-01-30T02:12:16.962Z,4.400
2023-01-30T02:14:17.568Z,4.199
2023-01-30T02:15:18.458Z,4.400
2023-01-30T02:16:17.504Z,4.099
2023-01-30T02:17:17.610Z,4.199
2023-01-30T02:18:17.228Z,4.099
2023-01-30T02:19:17.891Z,3.900
2023-01-30T02:20:17.499Z,4.5
2023-01-30T02:21:17.325Z,4.400
2023-01-30T02:22:17.766Z,4.199
2023-01-30T02:23:17.425Z,4.400
2023-01-30T02:24:18.174Z,5.099
2023-01-30T02:25:17.950Z,4.300
2023-01-30T02:26:17.861Z,4.400
2023-01-30T02:27:17.270Z,4.199
2023-01-30T02:28:18.197Z,4.300
2023-01-30T02:29:17.985Z,4
2023-01-30T02:30:17.731Z,4.300
2023-01-30T02:31:18.051Z,4.400
2023-01-30T02:32:17.770Z,4.599
2023-01-30T02:33:17.720Z,4.199
2023-01-30T02:34:17.451Z,4.5
2023-01-30T02:35:18.410Z,4.199
2023-01-30T02:36:17.804Z,4.300
2023-01-30T02:37:17.334Z,4.199
2023-01-30T02:39:17.668Z,4.400
2023-01-30T02:40:17.000Z,4.300
2023-01-30T02:43:17.670Z,4.400
2023-01-30T02:44:17.050Z,4.300
2023-01-30T02:45:17.911Z,3.900
2023-01-30T02:46:17.568Z,4.199
2023-01-30T02:48:17.327Z,4
2023-01-30T02:49:17.834Z,4.300
2023-01-30T02:50:17.389Z,4.199
2023-01-30T02:51:17.816Z,4.300
2023-01-30T02:52:18.546Z,4.199
2023-01-30T02:53:17.434Z,4.5
2023-01-30T02:54:17.340Z,4.400
2023-01-30T02:56:17.785Z,4.699
2023-01-30T02:57:17.472Z,4.400
2023-01-30T02:59:17.938Z,4.300
2023-01-30T03:00:18.708Z,4.400
2023-01-30T03:01:17.820Z,4.699
2023-01-30T03:02:17.577Z,4.5
2023-01-30T03:04:17.145Z,4.599
2023-01-30T03:05:17.969Z,4.199
2023-01-30T03:06:17.676Z,4.5
2023-01-30T03:07:17.396Z,4.300
2023-01-30T03:08:17.867Z,4.599
2023-01-30T03:11:17.859Z,4.800
2023-01-30T03:12:17.880Z,4.900
2023-01-30T03:13:17.810Z,4.699
2023-01-30T03:14:17.496Z,4.199
2023-01-30T03:15:18.489Z,4.599
2023-01-30T03:16:17.610Z,4.900
2023-01-30T03:17:17.517Z,4.599
2023-01-30T03:18:17.377Z,5.099
2023-01-30T03:19:17.946Z,4.599
2023-01-30T03:20:17.659Z,4.699
2023-01-30T03:21:17.367Z,4.599
2023-01-30T03:22:17.818Z,4.699
2023-01-30T03:23:17.484Z,4.800
2023-01-30T03:24:18.007Z,5.099
2023-01-30T03:26:18.096Z,5.5
2023-01-30T03:27:17.254Z,4.800
2023-01-30T03:28:17.860Z,5
2023-01-30T03:30:17.713Z,4.5
2023-01-30T03:31:17.719Z,4.699
2023-01-30T03:32:17.498Z,4.800
2023-01-30T03:33:17.610Z,5
2023-01-30T03:34:17.915Z,4.800
2023-01-30T03:35:17.645Z,4.900
2023-01-30T03:36:17.467Z,5.099
2023-01-30T03:37:17.459Z,5.300
2023-01-30T03:38:17.975Z,5
2023-01-30T03:39:18.038Z,5.099
2023-01-30T03:40:17.750Z,4.800
2023-01-30T03:41:17.565Z,4.5
2023-01-30T03:42:17.420Z,4.900
2023-01-30T03:43:17.683Z,4.800
2023-01-30T03:44:17.405Z,5.099
2023-01-30T03:45:32.014Z,4.699
2023-01-30T03:46:17.509Z,4.199
2023-01-30T03:47:17.708Z,4.900
2023-01-30T03:48:17.535Z,4.599
2023-01-30T03:49:17.386Z,4.5
2023-01-30T03:50:18.221Z,4.900
2023-01-30T03:51:16.993Z,4.400
2023-01-30T03:52:17.685Z,4.699
2023-01-30T03:53:17.552Z,4.300
2023-01-30T03:54:17.296Z,4.5
2023-01-30T03:55:17.728Z,4.400
2023-01-30T03:56:17.822Z,4.5
2023-01-30T03:57:17.459Z,4.300
2023-01-30T03:58:17.587Z,4.699
2023-01-30T03:59:17.461Z,4.300
2023-01-30T04:00:18.228Z,4.199
2023-01-30T04:01:18.167Z,4.099
2023-01-30T04:02:18.035Z,4.300
2023-01-30T04:04:17.888Z,4.400
2023-01-30T04:06:18.175Z,4.599
2023-01-30T04:07:17.964Z,4.800
2023-01-30T04:08:17.485Z,4.599
2023-01-30T04:10:17.798Z,4.5
2023-01-30T04:11:17.833Z,4.800
2023-01-30T04:12:17.843Z,4.599
2023-01-30T04:14:17.742Z,4.800
2023-01-30T04:15:17.966Z,5.099
2023-01-30T04:16:17.876Z,4.599
2023-01-30T04:18:17.472Z,4.900
2023-01-30T04:19:17.334Z,4.699
2023-01-30T04:20:18.596Z,4.599
2023-01-30T04:23:17.875Z,4.699
2023-01-30T04:24:17.847Z,4.199
2023-01-30T04:25:18.065Z,4.5
2023-01-30T04:26:18.107Z,4.300
2023-01-30T04:27:17.429Z,4.5
2023-01-30T04:29:17.569Z,4.599
2023-01-30T04:30:17.807Z,4.099
2023-01-30T04:31:17.849Z,4.199
2023-01-30T04:32:17.809Z,4.300
2023-01-30T04:33:17.609Z,4.099
2023-01-30T04:35:17.849Z,3.900
2023-01-30T04:36:17.788Z,3.599
2023-01-30T04:37:17.544Z,3.799
2023-01-30T04:38:17.795Z,4
2023-01-30T04:39:18.222Z,3.900
2023-01-30T04:40:18.207Z,3.799
2023-01-30T04:41:17.813Z,4.099
2023-01-30T04:42:17.437Z,3.900
2023-01-30T04:43:17.494Z,3.700
2023-01-30T04:44:17.937Z,3.900
2023-01-30T04:46:17.714Z,3.799
2023-01-30T04:48:17.560Z,3.900
2023-01-30T04:49:17.527Z,3.799
2023-01-30T04:50:17.559Z,3.900
2023-01-30T04:51:17.839Z,3.799
2023-01-30T04:53:17.738Z,4.199
2023-01-30T04:54:17.946Z,3.799
2023-01-30T04:55:18.295Z,3.900
2023-01-30T04:56:17.872Z,4.099
2023-01-30T04:58:17.584Z,3.799
2023-01-30T04:59:17.668Z,4.099
2023-01-30T05:01:17.956Z,4.400
2023-01-30T05:02:18.265Z,4.199
2023-01-30T05:03:17.458Z,3.900
2023-01-30T05:04:17.771Z,4.300
2023-01-30T05:05:18.043Z,3.799
2023-01-30T05:06:17.248Z,4.300
2023-01-30T05:07:17.716Z,4
2023-01-30T05:08:17.813Z,4.199
2023-01-30T05:10:18.134Z,4.400
2023-01-30T05:11:18.095Z,4
2023-01-30T05:12:17.650Z,4.300
2023-01-30T05:13:17.673Z,4.5
2023-01-30T05:14:17.549Z,4.400
2023-01-30T05:15:18.327Z,4.699
2023-01-30T05:16:17.783Z,4.300
2023-01-30T05:17:18.047Z,4.699
2023-01-30T05:18:18.347Z,4.599
2023-01-30T05:19:18.207Z,4.800
2023-01-30T05:20:17.969Z,4.900
2023-01-30T05:21:18.209Z,4.599
2023-01-30T05:22:18.258Z,4.400
2023-01-30T05:23:18.257Z,4.800
2023-01-30T05:25:18.431Z,4.599
2023-01-30T05:26:17.865Z,4.900
2023-01-30T05:27:18.170Z,4.699
2023-01-30T05:28:18.251Z,4.900
2023-01-30T05:29:18.080Z,5.199
2023-01-30T05:30:18.233Z,5.300
2023-01-30T05:31:18.126Z,4.800
2023-01-30T05:32:17.976Z,5
2023-01-30T05:33:17.919Z,5.199
2023-01-30T05:35:18.093Z,5
2023-01-30T05:37:18.385Z,4.800
2023-01-30T05:38:17.684Z,5.199
2023-01-30T05:39:17.840Z,5.300
2023-01-30T05:40:17.885Z,4.900
2023-01-30T05:41:17.703Z,5.300
2023-01-30T05:42:17.874Z,5
2023-01-30T05:43:17.890Z,5.099
2023-01-30T05:44:17.809Z,5.300
2023-01-30T05:45:18.219Z,5.5
2023-01-30T05:46:18.341Z,5
2023-01-30T05:47:17.737Z,5.400
2023-01-30T05:48:17.927Z,5
2023-01-30T05:49:17.677Z,4.800
2023-01-30T05:50:17.850Z,5.099
2023-01-30T05:51:17.606Z,4.800
2023-01-30T05:52:22.450Z,4.900
2023-01-30T05:54:22.927Z,5
2023-01-30T05:55:17.206Z,4.300
2023-01-30T05:56:17.896Z,4.400
2023-01-30T05:57:17.945Z,4.199
2023-01-30T05:58:17.855Z,4.300
2023-01-30T05:59:17.801Z,4.5
2023-01-30T06:00:19.063Z,3.799
2023-01-30T06:02:18.427Z,3.900
2023-01-30T06:04:17.371Z,4.300
2023-01-30T06:05:18.370Z,3.700
2023-01-30T06:06:17.689Z,3.599
2023-01-30T06:07:17.515Z,4.099
2023-01-30T06:08:17.944Z,3.900
2023-01-30T06:09:18.099Z,3.5
2023-01-30T06:10:18.609Z,3.099
2023-01-30T06:11:17.891Z,3.5
2023-01-30T06:12:17.959Z,3.299
2023-01-30T06:13:18.033Z,3.099
2023-01-30T06:14:18.180Z,3.299
2023-01-30T06:15:18.410Z,3
2023-01-30T06:16:17.903Z,2.900
2023-01-30T06:18:17.687Z,3
2023-01-30T06:19:18.060Z,2.900
2023-01-30T06:20:18.375Z,2.799
2023-01-30T06:21:17.952Z,2.5
2023-01-30T06:24:18.051Z,2.400
2023-01-30T06:25:18.349Z,2.299
2023-01-30T06:26:17.885Z,2
2023-01-30T06:27:18.070Z,2.299
2023-01-30T06:28:18.055Z,2
2023-01-30T06:29:18.677Z,2.5
2023-01-30T06:30:18.923Z,2
2023-01-30T06:31:18.163Z,1.899
2023-01-30T06:34:18.814Z,1.799
2023-01-30T06:35:19.422Z,1.600
2023-01-30T06:36:18.262Z,1.899
2023-01-30T06:37:18.403Z,1.700
2023-01-30T06:38:18.533Z,1.799
2023-01-30T06:39:18.607Z,1.700
2023-01-30T06:40:40.528Z,1.5
2023-01-30T06:42:18.435Z,1.600
2023-01-30T06:43:17.914Z,1.5
2023-01-30T06:44:18.869Z,1.399
2023-01-30T06:45:18.300Z,1.5
2023-01-30T06:46:18.332Z,1.299
2023-01-30T06:47:18.585Z,1.5
2023-01-30T06:49:18.079Z,1.299
2023-01-30T06:50:18.795Z,1.399
2023-01-30T06:51:18.231Z,1.299
2023-01-30T06:52:20.808Z,1.399
2023-01-30T06:53:18.611Z,1.100
2023-01-30T06:56:18.341Z,1.200
2023-01-30T06:58:17.679Z,1.399
2023-01-30T06:59:18.054Z,1.100
2023-01-30T07:00:18.994Z,1.299
2023-01-30T07:04:18.148Z,1.5
2023-01-30T07:08:17.464Z,1.200
2023-01-30T07:10:18.187Z,1.399
2023-01-30T07:11:18.305Z,1.200
2023-01-30T07:12:17.463Z,1
2023-01-30T07:13:17.846Z,1.100
2023-01-30T07:14:18.131Z,0.899
2023-01-30T07:15:19.015Z,1.200
2023-01-30T07:17:18.814Z,1.100
2023-01-30T07:19:17.617Z,1
2023-01-30T07:20:18.062Z,0.899
2023-01-30T07:22:17.849Z,0.699
2023-01-30T07:23:18.532Z,0.899
2023-01-30T07:24:18.113Z,0.800
2023-01-30T07:27:18.090Z,0.699
2023-01-30T07:29:17.890Z,0.600
2023-01-30T07:30:18.799Z,0.800
2023-01-30T07:31:17.983Z,0.600
2023-01-30T07:35:18.923Z,0.5
2023-01-30T07:37:17.819Z,0.600
2023-01-30T07:39:18.411Z,0.400
2023-01-30T07:40:17.955Z,0.5
2023-01-30T07:42:18.161Z,0.200
2023-01-30T07:43:18.677Z,0.400
2023-01-30T07:44:18.461Z,0.300
2023-01-30T07:45:18.513Z,0.600
2023-01-30T07:46:17.863Z,0.5
2023-01-30T07:47:18.262Z,0.600
2023-01-30T07:48:17.863Z,0.5
2023-01-30T07:51:18.133Z,0.400
2023-01-30T07:52:17.902Z,0.5
2023-01-30T07:53:18.354Z,0.400
2023-01-30T07:55:18.293Z,0.5
2023-01-30T07:57:18.089Z,0.400
2023-01-30T07:58:18.324Z,0.600
2023-01-30T07:59:18.297Z,0.400
2023-01-30T08:01:18.394Z,0.699
2023-01-30T08:02:18.026Z,0.400
2023-01-30T08:03:18.000Z,0.5
2023-01-30T08:04:18.205Z,0.600
2023-01-30T08:06:17.958Z,0.699
2023-01-30T08:07:18.535Z,0.600
2023-01-30T08:08:18.041Z,0.5
2023-01-30T08:09:18.295Z,0.699
2023-01-30T08:10:18.321Z,0.800
2023-01-30T08:11:17.890Z,0.600
2023-01-30T08:13:17.817Z,0.699
2023-01-30T08:16:18.043Z,0.5
2023-01-30T08:17:18.356Z,0.699
2023-01-30T08:19:18.090Z,0.800
2023-01-30T08:20:18.960Z,0.699
2023-01-30T08:21:17.702Z,0.600
2023-01-30T08:22:17.964Z,0.800
2023-01-30T08:23:18.367Z,0.899
2023-01-30T08:24:18.471Z,1.200
2023-01-30T08:25:18.031Z,1.100
2023-01-30T08:26:18.300Z,1.200
2023-01-30T08:27:18.107Z,1.399
2023-01-30T08:28:18.142Z,1.799
2023-01-30T08:29:18.028Z,1.700
2023-01-30T08:30:19.203Z,2
2023-01-30T08:33:17.881Z,2.299
2023-01-30T08:34:18.703Z,2.599
2023-01-30T08:35:18.686Z,2.700
2023-01-30T08:36:17.921Z,2.299
2023-01-30T08:37:18.323Z,2.5
2023-01-30T08:38:18.358Z,2.799
2023-01-30T08:39:18.473Z,3.099
2023-01-30T08:40:18.938Z,2.799
2023-01-30T08:41:18.308Z,3.099
2023-01-30T08:43:18.631Z,3.200
2023-01-30T08:44:18.617Z,3.299
2023-01-30T08:45:18.625Z,3.5
2023-01-30T08:46:17.903Z,3.599
2023-01-30T08:47:18.238Z,3.5
2023-01-30T08:48:18.196Z,3.900
2023-01-30T08:50:21.194Z,3.700
2023-01-30T08:51:18.294Z,3.900
2023-01-30T08:52:18.083Z,4
2023-01-30T08:54:17.939Z,4.400
2023-01-30T08:55:18.121Z,4.199
2023-01-30T08:56:18.794Z,4.400
2023-01-30T08:57:18.497Z,4.199
2023-01-30T08:58:18.138Z,4
2023-01-30T08:59:37.227Z,4.099
2023-01-30T09:00:18.938Z,4.199
2023-01-30T09:01:18.173Z,3.799
2023-01-30T09:02:17.793Z,4
2023-01-30T09:03:18.309Z,3.700
2023-01-30T09:04:18.117Z,4
2023-01-30T09:05:17.963Z,4.199
2023-01-30T09:06:18.013Z,3.799
2023-01-30T09:07:17.916Z,4.199
2023-01-30T09:08:18.021Z,3.700
2023-01-30T09:09:17.975Z,3.799
2023-01-30T09:10:18.247Z,3.700
2023-01-30T09:11:18.516Z,3.900
2023-01-30T09:12:18.305Z,3.5
2023-01-30T09:13:18.405Z,3.599
2023-01-30T09:15:18.230Z,3.5
2023-01-30T09:16:18.250Z,3.799
2023-01-30T09:18:17.921Z,4.400
2023-01-30T09:19:18.202Z,4
2023-01-30T09:20:18.839Z,4.300
2023-01-30T09:24:18.466Z,3.700
2023-01-30T09:25:18.490Z,4
2023-01-30T09:26:18.367Z,4.199
2023-01-30T09:27:18.201Z,3.900
2023-01-30T09:28:17.628Z,4.099
2023-01-30T09:29:17.940Z,4
2023-01-30T09:30:17.830Z,4.099
2023-01-30T09:32:17.303Z,4
2023-01-30T09:33:17.803Z,3.799
2023-01-30T09:34:17.765Z,3.599
2023-01-30T09:35:18.047Z,3.400
2023-01-30T09:37:18.265Z,3.200
2023-01-30T09:38:17.239Z,3.700
2023-01-30T09:39:17.871Z,3.400
2023-01-30T09:41:18.071Z,3.799
2023-01-30T09:42:17.501Z,4
2023-01-30T09:43:17.857Z,4.300
2023-01-30T09:44:18.053Z,4
2023-01-30T09:46:18.201Z,4.300
2023-01-30T09:47:18.321Z,4.400
2023-01-30T09:48:19.546Z,4.099
2023-01-30T09:49:18.549Z,4
2023-01-30T09:50:18.637Z,3.900
2023-01-30T09:51:18.361Z,4.300
2023-01-30T09:53:18.163Z,4.099
2023-01-30T09:54:18.332Z,4
2023-01-30T09:55:18.679Z,3.900
2023-01-30T09:56:18.562Z,4.199
2023-01-30T09:57:20.579Z,4.400
2023-01-30T09:59:18.369Z,4.199
2023-01-30T10:00:19.306Z,3.700
2023-01-30T10:01:20.590Z,4.300
2023-01-30T10:02:18.498Z,3.799
2023-01-30T10:03:18.755Z,4
2023-01-30T10:04:18.129Z,4.099
2023-01-30T10:05:18.765Z,3.799
2023-01-30T10:06:19.068Z,4.099
2023-01-30T10:07:21.240Z,3.799
2023-01-30T10:08:18.153Z,3.299
2023-01-30T10:09:18.442Z,3.900
2023-01-30T10:10:18.673Z,3.599
2023-01-30T10:12:18.243Z,3.299
2023-01-30T10:13:18.492Z,3.400
2023-01-30T10:16:18.777Z,3.299
2023-01-30T10:17:18.682Z,3.400
2023-01-30T10:18:18.511Z,3.5
2023-01-30T10:19:33.573Z,3.400
2023-01-30T10:21:18.439Z,3.200
2023-01-30T10:22:18.330Z,3.400
2023-01-30T10:23:18.911Z,3.299
2023-01-30T10:24:18.773Z,3.5
2023-01-30T10:26:18.653Z,3.700
2023-01-30T10:27:18.574Z,3
2023-01-30T10:28:18.558Z,3.400
2023-01-30T10:30:19.054Z,3.200
2023-01-30T10:31:18.442Z,3
2023-01-30T10:32:18.996Z,3.299
2023-01-30T10:33:18.358Z,3.5
2023-01-30T10:34:18.450Z,3.299
2023-01-30T10:35:18.458Z,3.200
2023-01-30T10:36:18.523Z,3
2023-01-30T10:37:18.474Z,3.200
2023-01-30T10:39:19.039Z,2.799
2023-01-30T10:40:18.592Z,3.200
2023-01-30T10:41:18.383Z,2.900
2023-01-30T10:42:18.084Z,2.700
2023-01-30T10:44:18.306Z,3.099
2023-01-30T10:46:17.917Z,3.400
2023-01-30T10:47:18.677Z,2.900
2023-01-30T10:48:18.135Z,3.299
2023-01-30T10:49:18.592Z,2.799
2023-01-30T10:50:19.900Z,2.900
2023-01-30T10:51:19.026Z,3
2023-01-30T10:52:18.285Z,2.799
2023-01-30T10:53:18.455Z,2.900
2023-01-30T10:54:19.848Z,3.400
2023-01-30T10:55:31.499Z,2.700
2023-01-30T10:56:18.064Z,2.900
2023-01-30T10:59:18.381Z,2.799
2023-01-30T11:00:26.532Z,2.5
2023-01-30T11:01:18.189Z,3.099
2023-01-30T11:02:26.832Z,2.900
2023-01-30T11:03:18.814Z,2.700
2023-01-30T11:04:18.977Z,3
2023-01-30T11:05:18.914Z,3.200
2023-01-30T11:06:18.360Z,2.700
2023-01-30T11:08:18.272Z,3.099
2023-01-30T11:09:18.101Z,2.900
2023-01-30T11:10:17.946Z,2.799
2023-01-30T11:11:18.929Z,2.900
2023-01-30T11:12:19.608Z,3
2023-01-30T11:13:18.529Z,2.900
2023-01-30T11:14:18.937Z,3.099
2023-01-30T11:15:19.262Z,3.400
2023-01-30T11:16:18.294Z,3
2023-01-30T11:17:18.479Z,3.400
2023-01-30T11:19:17.643Z,2.900
2023-01-30T11:20:18.921Z,2.799
2023-01-30T11:21:18.652Z,2.599
2023-01-30T11:22:18.424Z,3.299
2023-01-30T11:23:18.214Z,2.900
2023-01-30T11:24:18.049Z,3.400
2023-01-30T11:25:19.076Z,2.900
2023-01-30T11:26:18.174Z,3.099
2023-01-30T11:27:18.619Z,3.200
2023-01-30T11:28:18.167Z,2.599
2023-01-30T11:29:18.169Z,2.700
2023-01-30T11:30:19.277Z,2.900
2023-01-30T11:31:28.215Z,3.299
2023-01-30T11:32:18.920Z,2.799
2023-01-30T11:33:17.949Z,3.200
2023-01-30T11:34:18.438Z,2.599
2023-01-30T11:35:18.419Z,3
2023-01-30T11:36:17.900Z,2.700
2023-01-30T11:39:18.408Z,2.799
2023-01-30T11:40:19.023Z,3.200
2023-01-30T11:41:18.888Z,2.599
2023-01-30T11:42:18.225Z,3
2023-01-30T11:43:18.577Z,2.700
2023-01-30T11:44:18.842Z,2.799
2023-01-30T11:45:18.951Z,2.900
2023-01-30T11:47:18.266Z,2.799
2023-01-30T11:48:32.915Z,2.5
2023-01-30T11:49:45.400Z,2.700
2023-01-30T11:51:18.402Z,3
2023-01-30T11:52:18.540Z,3.599
2023-01-30T11:53:18.331Z,3.099
2023-01-30T11:54:18.309Z,2.799
2023-01-30T11:55:18.553Z,3.299
2023-01-30T11:56:18.463Z,2.900
2023-01-30T11:58:18.640Z,3
2023-01-30T11:59:19.386Z,2.700
2023-01-30T12:00:20.254Z,2.900
2023-01-30T12:01:20.123Z,2.700
2023-01-30T12:02:19.224Z,3.099
2023-01-30T12:04:18.531Z,2.900
2023-01-30T12:05:18.872Z,3.299
2023-01-30T12:06:18.454Z,2.900
2023-01-30T12:08:22.541Z,3.200
2023-01-30T12:09:18.539Z,2.900
2023-01-30T12:13:18.607Z,2.700
2023-01-30T12:14:18.436Z,2.599
2023-01-30T12:15:18.435Z,2.700
2023-01-30T12:17:18.428Z,2.799
2023-01-30T12:18:18.401Z,2.700
2023-01-30T12:19:17.944Z,2.900
2023-01-30T12:20:18.693Z,2.700
2023-01-30T12:21:17.995Z,3.099
2023-01-30T12:23:17.932Z,2.700
2023-01-30T12:24:18.610Z,3.299
2023-01-30T12:25:18.176Z,2.900
2023-01-30T12:26:18.478Z,3
2023-01-30T12:27:17.688Z,3.200
2023-01-30T12:28:18.411Z,2.799
2023-01-30T12:29:18.251Z,3
2023-01-30T12:30:19.189Z,3.099
2023-01-30T12:31:18.934Z,3.200
2023-01-30T12:32:19.095Z,3.5
2023-01-30T12:33:18.969Z,2.700
2023-01-30T12:34:18.896Z,2.900
2023-01-30T12:35:19.925Z,3
2023-01-30T12:36:19.381Z,3.299
2023-01-30T12:38:18.896Z,3.5
2023-01-30T12:39:19.120Z,3.400
2023-01-30T12:40:19.529Z,3.299
2023-01-30T12:41:18.852Z,3.099
2023-01-30T12:42:20.204Z,3.400
2023-01-30T12:44:18.972Z,3.299
2023-01-30T12:45:19.521Z,3.200
2023-01-30T12:47:18.841Z,3.400
2023-01-30T12:48:18.845Z,3.200
2023-01-30T12:49:18.601Z,3.5
2023-01-30T12:51:19.152Z,3.599
2023-01-30T12:53:18.929Z,3
2023-01-30T12:55:20.470Z,3.599
2023-01-30T12:56:18.882Z,3.299
2023-01-30T12:57:19.394Z,3.5
2023-01-30T12:58:18.764Z,3.400
2023-01-30T13:00:19.411Z,3.299
2023-01-30T13:01:19.635Z,3.200
2023-01-30T13:02:19.270Z,3.299
2023-01-30T13:04:18.749Z,3
2023-01-30T13:05:19.550Z,3.700
2023-01-30T13:06:19.246Z,3.5
2023-01-30T13:07:18.743Z,3.299
2023-01-30T13:08:18.688Z,3.200
2023-01-30T13:09:18.896Z,3.5
2023-01-30T13:10:19.677Z,3.299
2023-01-30T13:11:19.393Z,3.400
2023-01-30T13:12:19.064Z,3.5
2023-01-30T13:13:18.602Z,3.700
2023-01-30T13:14:18.619Z,3.599
2023-01-30T13:15:19.555Z,3.299
2023-01-30T13:16:20.517Z,3.599
2023-01-30T13:17:19.058Z,3.299
2023-01-30T13:18:18.930Z,3.200
2023-01-30T13:20:18.864Z,3.700
2023-01-30T13:21:26.850Z,3.599
2023-01-30T13:22:18.418Z,4
2023-01-30T13:23:19.831Z,3.5
2023-01-30T13:24:18.926Z,3.400
2023-01-30T13:25:26.700Z,3.700
2023-01-30T13:26:18.739Z,4.099
2023-01-30T13:27:18.425Z,3.400
2023-01-30T13:28:18.855Z,3.700
2023-01-30T13:29:18.341Z,3.900
2023-01-30T13:30:19.498Z,3.799
2023-01-30T13:31:19.263Z,4
2023-01-30T13:32:19.097Z,3.599
2023-01-30T13:33:32.740Z,3.5
2023-01-30T13:34:18.807Z,3.599
2023-01-30T13:36:18.964Z,3.400
2023-01-30T13:37:20.192Z,3.700
2023-01-30T13:38:18.631Z,3.900
2023-01-30T13:39:18.736Z,3.700
2023-01-30T13:40:18.637Z,3.599
2023-01-30T13:41:18.907Z,3.200
2023-01-30T13:42:18.470Z,3.599
2023-01-30T13:43:18.801Z,3.700
2023-01-30T13:44:18.406Z,3.299
2023-01-30T13:45:19.133Z,3.599
2023-01-30T13:46:18.695Z,3.799
2023-01-30T13:47:18.047Z,3.5
2023-01-30T13:48:18.395Z,3.400
2023-01-30T13:49:37.012Z,3.200
2023-01-30T13:50:19.333Z,3.799
2023-01-30T13:51:18.402Z,3.5
2023-01-30T13:52:18.350Z,3.400
2023-01-30T13:53:17.869Z,3.700
2023-01-30T13:54:18.271Z,3.299
2023-01-30T13:55:18.572Z,3.400
2023-01-30T13:56:39.736Z,3.799
2023-01-30T13:57:17.861Z,3.599
2023-01-30T13:58:18.471Z,3.700
2023-01-30T14:01:18.493Z,3.5
2023-01-30T14:02:19.225Z,3.599
2023-01-30T14:03:18.537Z,3.5
2023-01-30T14:04:18.244Z,3.299
2023-01-30T14:05:19.012Z,3.599
2023-01-30T14:06:18.299Z,3.200
2023-01-30T14:07:17.910Z,4
2023-01-30T14:08:17.934Z,3.700
2023-01-30T14:09:18.863Z,3.5
2023-01-30T14:10:18.322Z,3.700
2023-01-30T14:11:18.750Z,4
2023-01-30T14:12:18.787Z,3.700
2023-01-30T14:13:18.572Z,3.799
2023-01-30T14:14:17.949Z,3.700
2023-01-30T14:15:18.520Z,3.099
2023-01-30T14:16:18.932Z,3.599
2023-01-30T14:17:18.644Z,3.799
2023-01-30T14:18:18.276Z,3.5
2023-01-30T14:19:18.658Z,4.300
2023-01-30T14:20:17.731Z,3.599
2023-01-30T14:22:18.516Z,3.5
2023-01-30T14:24:18.561Z,4
2023-01-30T14:25:19.158Z,3.900
2023-01-30T14:26:18.645Z,3.799
2023-01-30T14:27:19.043Z,3.400
2023-01-30T14:28:19.226Z,3.599
2023-01-30T14:29:18.720Z,4
2023-01-30T14:30:19.028Z,3.700
2023-01-30T14:32:18.176Z,3.299
2023-01-30T14:33:18.722Z,3.400
2023-01-30T14:35:19.151Z,3.700
2023-01-30T14:36:18.261Z,3.400
2023-01-30T14:37:17.888Z,3.5
2023-01-30T14:38:18.396Z,3.700
2023-01-30T14:39:18.130Z,3.599
2023-01-30T14:40:18.216Z,3.5
2023-01-30T14:44:19.224Z,3.400
2023-01-30T14:45:19.826Z,3.5
2023-01-30T14:46:18.456Z,3.400
2023-01-30T14:47:34.392Z,3.599
2023-01-30T14:48:18.795Z,3.5
2023-01-30T14:49:18.484Z,3.700
2023-01-30T14:50:19.559Z,3.599
2023-01-30T14:51:18.664Z,3.099
2023-01-30T14:52:18.670Z,3.400
2023-01-30T14:53:18.776Z,3.5
2023-01-30T14:54:20.570Z,3.900
2023-01-30T14:55:19.773Z,3.599
2023-01-30T14:56:19.207Z,3.5
2023-01-30T14:57:18.735Z,3.400
2023-01-30T14:58:18.946Z,3.900
2023-01-30T14:59:18.609Z,3.5
2023-01-30T15:00:19.940Z,3.700
2023-01-30T15:02:19.024Z,3.900
2023-01-30T15:03:18.741Z,3.799
2023-01-30T15:04:17.967Z,3.700
2023-01-30T15:05:19.438Z,3.599
2023-01-30T15:06:18.755Z,3.200
2023-01-30T15:07:19.270Z,3.400
2023-01-30T15:08:18.486Z,3.599
2023-01-30T15:10:19.161Z,3.700
2023-01-30T15:11:18.985Z,3.599
2023-01-30T15:12:18.448Z,4
2023-01-30T15:13:18.386Z,3.700
2023-01-30T15:14:18.147Z,3.400
2023-01-30T15:15:18.656Z,3.5
2023-01-30T15:17:18.762Z,3.599
2023-01-30T15:18:19.365Z,3.700
2023-01-30T15:19:19.073Z,3.299
2023-01-30T15:20:18.854Z,3.700
2023-01-30T15:21:19.045Z,3.900
2023-01-30T15:22:18.733Z,3.299
2023-01-30T15:23:19.296Z,3.599
2023-01-30T15:24:19.098Z,3.900
2023-01-30T15:25:19.593Z,3.700
2023-01-30T15:27:18.968Z,3.799
2023-01-30T15:28:18.685Z,3.900
2023-01-30T15:29:18.759Z,3.700
2023-01-30T15:30:19.660Z,4.099
2023-01-30T15:31:18.712Z,3.700
2023-01-30T15:32:18.484Z,3.5
2023-01-30T15:33:29.494Z,3.799
2023-01-30T15:35:18.781Z,4
2023-01-30T15:37:18.912Z,4.099
2023-01-30T15:38:23.695Z,3.900
2023-01-30T15:39:18.458Z,4.5
2023-01-30T15:40:19.518Z,4.599
2023-01-30T15:42:23.647Z,4
2023-01-30T15:43:18.656Z,3.900